Time;durP1;ratioP1;P1;durP2;ratioP2;P2;SDS_P1;SDS_P2;PMS_P1;PMS_P2;Temp;Humidity;BMP_temperature;BMP_pressure;BME280_temperature;BME280_humidity;BME280_pressure;Samples;Min_cycle;Max_cycle;Signal;HPM_P1;HPM_P2
2022/05/24 00:07:51;;;;;;;5.77;1.67;;;16.00;99.90;;;;;;20829876;28;20037;-82
2022/05/24 00:17:56;;;;;;;5.47;2.17;;;16.00;99.90;;;;;;20834005;28;20061;-82
2022/05/24 00:27:57;;;;;;;6.72;2.00;;;16.00;99.90;;;;;;20852601;28;20268;-83
2022/05/24 00:37:58;;;;;;;7.53;3.03;;;15.90;99.90;;;;;;20863527;28;20033;-81
2022/05/24 00:48:07;;;;;;;7.00;1.57;;;15.80;99.90;;;;;;20847538;28;20037;-81
2022/05/24 00:58:18;;;;;;;3.50;1.45;;;15.70;99.90;;;;;;20854386;28;20056;-82
2022/05/24 01:08:19;;;;;;;5.77;1.83;;;15.70;99.90;;;;;;20853900;28;20064;-81
2022/05/24 01:18:23;;;;;;;2.57;1.53;;;15.70;99.90;;;;;;20861870;28;20037;-82
2022/05/24 01:28:44;;;;;;;5.57;1.80;;;15.60;99.90;;;;;;20833420;28;20029;-82
2022/05/24 01:38:55;;;;;;;4.03;1.73;;;15.60;99.90;;;;;;20855063;28;20037;-81
2022/05/24 01:49:01;;;;;;;3.33;1.33;;;15.60;99.90;;;;;;20866579;28;20394;-82
2022/05/24 01:59:03;;;;;;;4.20;1.45;;;15.60;99.90;;;;;;20867139;28;20036;-82
2022/05/24 02:09:06;;;;;;;3.53;1.50;;;15.60;99.90;;;;;;20834796;28;20099;-82
2022/05/24 02:19:08;;;;;;;1.52;1.40;;;15.50;99.90;;;;;;20866461;23;20048;-75
2022/05/24 02:29:09;;;;;;;3.88;1.98;;;15.50;99.90;;;;;;20831169;28;20045;-75
2022/05/24 02:39:11;;;;;;;5.40;1.87;;;15.50;99.90;;;;;;20830419;28;20029;-75
2022/05/24 02:49:18;;;;;;;2.80;1.50;;;15.50;99.90;;;;;;20829401;28;20033;-75
2022/05/24 02:59:19;;;;;;;4.27;0.80;;;15.40;99.90;;;;;;20828670;28;20064;-75
2022/05/24 03:09:35;;;;;;;7.27;1.00;;;15.40;99.90;;;;;;20810242;28;20029;-75
2022/05/24 03:19:36;;;;;;;1.98;1.10;;;15.20;99.90;;;;;;20827055;28;20025;-74
2022/05/24 03:29:38;;;;;;;3.23;0.93;;;15.10;99.90;;;;;;20809112;28;20025;-74
2022/05/24 03:39:39;;;;;;;3.08;1.15;;;15.10;99.90;;;;;;20825915;28;20033;-74
2022/05/24 03:49:40;;;;;;;6.20;1.70;;;15.00;99.90;;;;;;20825068;28;20034;-74
2022/05/24 03:59:41;;;;;;;4.90;1.27;;;14.80;99.90;;;;;;20824653;28;20483;-75
2022/05/24 04:09:42;;;;;;;3.93;1.83;;;14.70;99.90;;;;;;20807414;28;20047;-74
2022/05/24 04:19:43;;;;;;;3.13;1.80;;;14.60;99.90;;;;;;20825661;28;20037;-74
2022/05/24 04:29:43;;;;;;;4.13;1.80;;;14.80;99.90;;;;;;20824111;28;20037;-73
2022/05/24 04:39:44;;;;;;;5.93;1.83;;;14.80;99.90;;;;;;20824134;28;20071;-74
2022/05/24 04:49:50;;;;;;;2.87;1.60;;;14.60;99.90;;;;;;20823511;28;20026;-74
2022/05/24 04:59:53;;;;;;;8.75;2.70;;;14.60;99.90;;;;;;20824142;28;20049;-73
2022/05/24 05:09:54;;;;;;;3.80;1.60;;;14.60;99.90;;;;;;20825606;28;20087;-75
2022/05/24 05:19:55;;;;;;;3.80;1.57;;;14.90;99.90;;;;;;20837273;28;20043;-74
2022/05/24 05:40:17;;;;;;;3.63;1.45;;;14.90;99.90;;;;;;20834885;28;20048;-75
2022/05/24 05:50:19;;;;;;;2.63;0.80;;;15.20;99.90;;;;;;20834703;28;20029;-74
2022/05/24 06:00:20;;;;;;;2.00;0.40;;;14.30;99.90;;;;;;20833413;28;20060;-74
2022/05/24 06:10:21;;;;;;;3.00;0.53;;;13.70;99.90;;;;;;20832901;28;20446;-74
2022/05/24 06:20:26;;;;;;;0.67;0.40;;;13.50;99.90;;;;;;20831209;28;20064;-74
2022/05/24 06:30:27;;;;;;;0.80;0.50;;;13.00;99.90;;;;;;20831046;28;20040;-74
2022/05/24 06:40:28;;;;;;;1.97;0.50;;;12.90;99.90;;;;;;20830457;28;20029;-74
2022/05/24 06:50:29;;;;;;;0.57;0.40;;;13.30;99.90;;;;;;20829468;28;20040;-74
2022/05/24 07:10:49;;;;;;;2.33;0.80;;;13.60;99.90;;;;;;20827512;28;20029;-74
2022/05/24 07:20:50;;;;;;;1.63;0.57;;;13.30;99.90;;;;;;20810165;28;20095;-75
2022/05/24 07:30:51;;;;;;;1.23;0.50;;;13.30;99.90;;;;;;20829400;28;20033;-75
2022/05/24 07:51:14;;;;;;;3.17;0.70;;;13.60;99.90;;;;;;20826086;28;20029;-74
2022/05/24 08:01:16;;;;;;;0.67;0.40;;;13.60;99.90;;;;;;20825246;28;20060;-75
2022/05/24 08:11:17;;;;;;;2.35;0.90;;;13.90;99.90;;;;;;20825118;28;20025;-74
2022/05/24 08:21:18;;;;;;;1.70;0.70;;;14.10;99.90;;;;;;20752077;22;20073;-70
2022/05/24 08:31:19;;;;;;;2.10;0.70;;;14.20;99.90;;;;;;20661286;28;20049;-70
2022/05/24 08:41:38;;;;;;;2.03;0.43;;;14.40;99.90;;;;;;20660915;28;20037;-70
2022/05/24 08:52:00;;;;;;;1.73;0.57;;;15.50;99.90;;;;;;20675416;28;20035;-71
2022/05/24 09:02:01;;;;;;;2.70;0.60;;;15.10;99.90;;;;;;20675742;28;20408;-70
2022/05/24 09:12:27;;;;;;;2.13;0.77;;;14.80;99.90;;;;;;20673092;28;20097;-71
2022/05/24 09:22:34;;;;;;;1.00;0.60;;;14.90;99.90;;;;;;20673492;28;20386;-71
2022/05/24 09:32:46;;;;;;;1.83;0.60;;;15.30;99.90;;;;;;20672196;28;20030;-71
2022/05/24 09:42:47;;;;;;;0.67;0.40;;;15.30;99.90;;;;;;20672268;28;20517;-71
2022/05/24 09:53:06;;;;;;;1.55;0.88;;;16.10;99.90;;;;;;20671316;28;20026;-71
2022/05/24 10:03:08;;;;;;;2.15;0.32;;;16.70;99.90;;;;;;20669865;28;20045;-71
2022/05/24 10:13:12;;;;;;;1.58;0.40;;;16.40;99.90;;;;;;20669603;28;20133;-71
2022/05/24 10:23:51;;;;;;;2.70;0.40;;;16.10;99.90;;;;;;20669006;28;20034;-71
2022/05/24 10:44:29;;;;;;;0.80;0.20;;;18.50;99.90;;;;;;20667565;28;20034;-70
2022/05/24 10:54:52;;;;;;;0.38;0.30;;;17.50;99.90;;;;;;20722865;28;20037;-71
2022/05/24 11:05:20;;;;;;;0.75;0.40;;;17.60;99.90;;;;;;20747832;28;20056;-71
2022/05/24 11:15:24;;;;;;;0.73;0.38;;;17.90;99.90;;;;;;20746580;28;20026;-71
2022/05/24 11:25:30;;;;;;;1.15;0.43;;;17.30;99.90;;;;;;20746874;28;20540;-71
2022/05/24 11:35:39;;;;;;;1.90;0.50;;;17.10;99.90;;;;;;20745407;28;20169;-72
2022/05/24 11:45:47;;;;;;;1.90;0.52;;;17.90;99.90;;;;;;20744434;28;20577;-71
2022/05/24 11:55:56;;;;;;;1.75;0.50;;;17.90;99.90;;;;;;20743948;28;20128;-71
2022/05/24 12:16:46;;;;;;;2.00;0.30;;;18.20;99.90;;;;;;20743125;28;20033;-71
2022/05/24 12:27:13;;;;;;;2.97;0.30;;;18.70;99.90;;;;;;20759172;28;20057;-71
2022/05/24 12:37:25;;;;;;;1.65;0.30;;;19.30;99.90;;;;;;20759006;28;20056;-71
2022/05/24 12:47:26;;;;;;;0.28;0.28;;;18.70;99.90;;;;;;20757665;28;20030;-71
2022/05/24 12:57:29;;;;;;;1.58;1.00;;;18.90;99.90;;;;;;20755884;28;20456;-72
2022/05/24 13:07:38;;;;;;;1.65;0.60;;;19.00;99.90;;;;;;20756080;28;20092;-71
2022/05/24 13:17:41;;;;;;;1.15;0.35;;;18.90;99.90;;;;;;20755001;28;20030;-71
2022/05/24 13:27:59;;;;;;;1.58;0.35;;;19.20;99.90;;;;;;20754645;28;20057;-71
2022/05/24 13:38:01;;;;;;;2.10;0.30;;;19.20;99.90;;;;;;20752430;28;20041;-72
2022/05/24 13:48:22;;;;;;;1.75;0.43;;;18.90;99.90;;;;;;20684239;28;20089;-72
2022/05/24 13:58:38;;;;;;;0.60;0.40;;;20.00;99.90;;;;;;20714586;28;20034;-71
2022/05/24 14:08:42;;;;;;;0.77;0.55;;;21.00;99.90;;;;;;20687103;28;20031;-71
2022/05/24 14:18:44;;;;;;;7.22;0.55;;;18.80;99.90;;;;;;20728588;22;20116;-78
2022/05/24 14:28:45;;;;;;;1.17;0.50;;;18.40;99.90;;;;;;20962791;28;20032;-78
2022/05/24 14:38:46;;;;;;;0.40;0.30;;;18.20;99.90;;;;;;20925372;28;20044;-77
2022/05/24 14:48:47;;;;;;;2.33;0.63;;;18.50;99.90;;;;;;20920151;28;20459;-79
2022/05/24 14:58:48;;;;;;;1.93;0.40;;;18.10;99.90;;;;;;20881656;28;20108;-78
2022/05/24 15:19:11;;;;;;;0.90;0.23;;;17.60;99.90;;;;;;20848598;28;20029;-78
2022/05/24 15:29:12;;;;;;;2.37;0.50;;;18.10;99.90;;;;;;20908505;28;20025;-78
2022/05/24 15:39:13;;;;;;;2.33;0.47;;;17.90;99.90;;;;;;20908333;28;20037;-78
2022/05/24 15:49:15;;;;;;;1.43;0.50;;;17.60;99.90;;;;;;20874948;28;20570;-77
2022/05/24 15:59:16;;;;;;;2.92;0.55;;;17.40;99.90;;;;;;20899961;28;20035;-78
2022/05/24 16:19:37;;;;;;;4.32;0.80;;;17.30;99.90;;;;;;20896800;28;20029;-78
2022/05/24 16:29:37;;;;;;;1.53;0.70;;;17.00;99.90;;;;;;20902930;28;20067;-78
2022/05/24 16:39:38;;;;;;;2.63;0.60;;;16.90;99.90;;;;;;20968821;28;20036;-78
2022/05/24 16:49:39;;;;;;;2.37;0.83;;;16.60;99.90;;;;;;20971732;28;20036;-77
2022/05/24 16:59:40;;;;;;;1.50;0.70;;;16.40;99.90;;;;;;21000278;28;20498;-78
2022/05/24 17:09:41;;;;;;;2.63;0.73;;;16.70;99.90;;;;;;20998305;28;20131;-78
2022/05/24 17:19:42;;;;;;;6.73;0.60;;;16.60;99.90;;;;;;21001977;28;20032;-77
2022/05/24 17:29:43;;;;;;;1.07;0.60;;;16.60;99.90;;;;;;21001708;28;20028;-78
2022/05/24 17:39:44;;;;;;;6.23;0.70;;;16.60;99.90;;;;;;21000925;28;20129;-79
2022/05/24 17:49:47;;;;;;;0.88;0.57;;;16.60;99.90;;;;;;21000680;28;20033;-77
2022/05/24 17:59:48;;;;;;;1.50;0.80;;;16.70;99.90;;;;;;20908161;28;20107;-77
2022/05/24 18:09:49;;;;;;;0.93;0.57;;;16.80;99.90;;;;;;20834761;28;20514;-78
2022/05/24 18:19:50;;;;;;;1.97;0.80;;;16.60;99.90;;;;;;20831599;28;20029;-78
2022/05/24 18:40:14;;;;;;;2.63;0.90;;;16.30;99.90;;;;;;20836461;28;20538;-79
2022/05/24 18:50:15;;;;;;;;;;;16.10;99.90;;;;;;20850101;28;20040;-78
2022/05/24 19:00:16;;;;;;;2.35;0.75;;;15.70;99.90;;;;;;20881782;28;19912;-79
2022/05/24 19:10:18;;;;;;;3.63;1.00;;;15.50;99.90;;;;;;20957305;28;20041;-79
2022/05/24 19:20:19;;;;;;;1.13;0.60;;;15.60;99.90;;;;;;20911315;28;20057;-79
2022/05/24 19:30:20;;;;;;;5.17;1.10;;;15.20;99.90;;;;;;20892457;28;20267;-78
2022/05/24 19:50:40;;;;;;;2.42;0.85;;;14.80;99.90;;;;;;20896573;28;20283;-79
2022/05/24 20:00:41;;;;;;;4.87;0.87;;;14.80;99.90;;;;;;20912637;28;20475;-79
2022/05/24 20:10:43;;;;;;;1.57;0.80;;;14.60;99.90;;;;;;20912296;28;20029;-79
2022/05/24 20:20:44;;;;;;;6.03;1.10;;;14.60;99.90;;;;;;20875609;23;20064;-76
2022/05/24 20:30:45;;;;;;;2.53;1.77;;;14.50;99.90;;;;;;20823228;28;20396;-73
2022/05/24 20:40:45;;;;;;;4.60;1.20;;;14.10;99.90;;;;;;20827313;28;20032;-75
2022/05/24 20:50:46;;;;;;;3.70;1.20;;;14.30;99.90;;;;;;20838970;28;20205;-75
2022/05/24 21:00:48;;;;;;;5.00;2.03;;;14.50;99.90;;;;;;20838105;28;20031;-75
2022/05/24 21:10:49;;;;;;;3.10;1.10;;;14.60;99.90;;;;;;20836705;28;20039;-74
2022/05/24 21:20:51;;;;;;;2.58;1.20;;;14.60;99.90;;;;;;20836113;28;20116;-75
2022/05/24 21:30:52;;;;;;;2.75;1.40;;;14.10;99.90;;;;;;20835455;28;20044;-74
2022/05/24 21:40:53;;;;;;;1.87;1.13;;;13.90;99.90;;;;;;20782624;28;20029;-75
2022/05/24 21:51:03;;;;;;;1.93;1.20;;;13.70;99.90;;;;;;20750061;28;20503;-75
2022/05/24 22:01:06;;;;;;;2.47;1.10;;;14.00;99.90;;;;;;20748813;28;20028;-75
2022/05/24 22:11:19;;;;;;;2.85;1.10;;;14.20;99.90;;;;;;20750211;28;20365;-74
2022/05/24 22:21:22;;;;;;;1.65;1.15;;;14.20;99.90;;;;;;20750198;28;20038;-74
2022/05/24 22:31:23;;;;;;;2.72;1.33;;;14.20;99.90;;;;;;20749578;28;20042;-75
2022/05/24 22:41:24;;;;;;;1.90;1.10;;;13.90;99.90;;;;;;20749227;28;20557;-74
2022/05/24 22:51:27;;;;;;;2.17;1.03;;;13.80;99.90;;;;;;20747954;28;20115;-74
2022/05/24 23:01:28;;;;;;;3.10;1.23;;;13.90;99.90;;;;;;20746897;28;20443;-75
2022/05/24 23:11:29;;;;;;;3.20;1.40;;;13.70;99.90;;;;;;20746918;28;20030;-73
2022/05/24 23:21:32;;;;;;;2.80;1.20;;;13.70;99.90;;;;;;20753055;28;20038;-73
2022/05/24 23:31:34;;;;;;;2.05;1.10;;;13.50;99.90;;;;;;20745187;28;20099;-74
2022/05/24 23:41:35;;;;;;;3.78;1.30;;;13.50;99.90;;;;;;20744959;28;20040;-74
2022/05/24 23:51:36;;;;;;;6.03;1.43;;;13.60;99.90;;;;;;20726603;28;20069;-73
